sensor_id;sensor_type;location;lat;lon;timestamp;pressure;altitude;pressure_sealevel;temperature;humidity
49515;BME280;35415;47.870;16.058;2023-05-22T00:01:12;97312.59;;;14.40;100.00
49515;BME280;35415;47.870;16.058;2023-05-22T00:03:44;97221.78;;;13.91;100.00
49515;BME280;35415;47.870;16.058;2023-05-22T00:06:13;97238.25;;;13.95;100.00
49515;BME280;35415;47.870;16.058;2023-05-22T00:08:43;97280.59;;;14.23;100.00
49515;BME280;35415;47.870;16.058;2023-05-22T00:11:10;97249.72;;;14.05;100.00
49515;BME280;35415;47.870;16.058;2023-05-22T00:13:38;97301.53;;;14.36;100.00
49515;BME280;35415;47.870;16.058;2023-05-22T00:16:09;97262.94;;;14.07;100.00
49515;BME280;35415;47.870;16.058;2023-05-22T00:18:37;97255.78;;;13.97;100.00
49515;BME280;35415;47.870;16.058;2023-05-22T00:21:06;97296.53;;;14.25;100.00
49515;BME280;35415;47.870;16.058;2023-05-22T00:23:36;97242.09;;;13.89;100.00
49515;BME280;35415;47.870;16.058;2023-05-22T00:26:07;97284.47;;;14.17;100.00
49515;BME280;35415;47.870;16.058;2023-05-22T00:28:35;97307.84;;;14.32;100.00
49515;BME280;35415;47.870;16.058;2023-05-22T00:31:08;97311.38;;;14.27;100.00
49515;BME280;35415;47.870;16.058;2023-05-22T00:33:36;97297.81;;;14.32;100.00
49515;BME280;35415;47.870;16.058;2023-05-22T00:36:06;97231.16;;;13.75;100.00
49515;BME280;35415;47.870;16.058;2023-05-22T00:38:34;97269.91;;;13.94;100.00
49515;BME280;35415;47.870;16.058;2023-05-22T00:41:06;97269.81;;;13.99;100.00
49515;BME280;35415;47.870;16.058;2023-05-22T00:43:34;97186.16;;;13.41;100.00
49515;BME280;35415;47.870;16.058;2023-05-22T00:46:07;97225.13;;;13.59;100.00
49515;BME280;35415;47.870;16.058;2023-05-22T00:48:37;97237.97;;;13.72;100.00
49515;BME280;35415;47.870;16.058;2023-05-22T00:51:06;97232.97;;;13.61;100.00
49515;BME280;35415;47.870;16.058;2023-05-22T00:53:34;97240.72;;;13.67;100.00
49515;BME280;35415;47.870;16.058;2023-05-22T00:56:06;97258.44;;;13.78;100.00
49515;BME280;35415;47.870;16.058;2023-05-22T00:58:35;97307.75;;;13.94;100.00
49515;BME280;35415;47.870;16.058;2023-05-22T01:01:09;97278.19;;;13.79;100.00
49515;BME280;35415;47.870;16.058;2023-05-22T01:03:41;97291.41;;;13.80;100.00
49515;BME280;35415;47.870;16.058;2023-05-22T01:06:10;97261.84;;;13.65;100.00
49515;BME280;35415;47.870;16.058;2023-05-22T01:08:41;97278.78;;;13.71;100.00
49515;BME280;35415;47.870;16.058;2023-05-22T01:11:12;97276.59;;;13.73;100.00
49515;BME280;35415;47.870;16.058;2023-05-22T01:13:47;97235.06;;;13.40;100.00
49515;BME280;35415;47.870;16.058;2023-05-22T01:16:24;97214.13;;;13.27;100.00
49515;BME280;35415;47.870;16.058;2023-05-22T01:19:00;97221.69;;;13.30;100.00
49515;BME280;35415;47.870;16.058;2023-05-22T01:21:36;97238.97;;;13.29;100.00
49515;BME280;35415;47.870;16.058;2023-05-22T01:27:23;97255.31;;;13.42;100.00
49515;BME280;35415;47.870;16.058;2023-05-22T01:30:16;97199.75;;;13.02;100.00
49515;BME280;35415;47.870;16.058;2023-05-22T01:32:48;97237.97;;;13.19;100.00
49515;BME280;35415;47.870;16.058;2023-05-22T01:35:17;97238.56;;;13.11;100.00
49515;BME280;35415;47.870;16.058;2023-05-22T01:37:48;97202.41;;;12.78;100.00
49515;BME280;35415;47.870;16.058;2023-05-22T01:40:16;97274.03;;;13.34;100.00
49515;BME280;35415;47.870;16.058;2023-05-22T01:42:44;97235.66;;;13.03;100.00
49515;BME280;35415;47.870;16.058;2023-05-22T01:45:13;97291.06;;;13.34;100.00
49515;BME280;35415;47.870;16.058;2023-05-22T01:47:41;97281.09;;;13.30;100.00
49515;BME280;35415;47.870;16.058;2023-05-22T01:50:12;97217.69;;;12.88;100.00
49515;BME280;35415;47.870;16.058;2023-05-22T01:52:48;97242.50;;;12.95;100.00
49515;BME280;35415;47.870;16.058;2023-05-22T01:55:23;97300.31;;;13.28;100.00
49515;BME280;35415;47.870;16.058;2023-05-22T01:57:59;97210.34;;;12.64;100.00
49515;BME280;35415;47.870;16.058;2023-05-22T02:00:30;97265.72;;;12.96;100.00
49515;BME280;35415;47.870;16.058;2023-05-22T02:03:03;97277.31;;;12.97;100.00
49515;BME280;35415;47.870;16.058;2023-05-22T02:05:36;97225.50;;;12.60;100.00
49515;BME280;35415;47.870;16.058;2023-05-22T02:08:05;97260.38;;;12.86;100.00
49515;BME280;35415;47.870;16.058;2023-05-22T02:10:34;97218.22;;;12.61;100.00
49515;BME280;35415;47.870;16.058;2023-05-22T02:13:02;97243.78;;;12.69;100.00
49515;BME280;35415;47.870;16.058;2023-05-22T02:15:30;97283.19;;;13.04;100.00
49515;BME280;35415;47.870;16.058;2023-05-22T02:17:58;97293.47;;;13.02;100.00
49515;BME280;35415;47.870;16.058;2023-05-22T02:20:28;97232.22;;;12.58;100.00
49515;BME280;35415;47.870;16.058;2023-05-22T02:22:57;97244.28;;;12.71;100.00
49515;BME280;35415;47.870;16.058;2023-05-22T02:25:24;97247.59;;;12.62;100.00
49515;BME280;35415;47.870;16.058;2023-05-22T02:27:52;97254.91;;;12.62;100.00
49515;BME280;35415;47.870;16.058;2023-05-22T02:30:19;97290.31;;;12.89;100.00
49515;BME280;35415;47.870;16.058;2023-05-22T02:32:47;97276.69;;;12.71;100.00
49515;BME280;35415;47.870;16.058;2023-05-22T02:35:15;97217.56;;;12.35;100.00
49515;BME280;35415;47.870;16.058;2023-05-22T02:37:43;97273.13;;;12.75;100.00
49515;BME280;35415;47.870;16.058;2023-05-22T02:40:13;97234.50;;;12.46;100.00
49515;BME280;35415;47.870;16.058;2023-05-22T02:42:41;97243.06;;;12.53;100.00
49515;BME280;35415;47.870;16.058;2023-05-22T02:45:09;97249.56;;;12.52;100.00
49515;BME280;35415;47.870;16.058;2023-05-22T02:47:36;97207.38;;;12.22;100.00
49515;BME280;35415;47.870;16.058;2023-05-22T02:50:06;97232.09;;;12.39;100.00
49515;BME280;35415;47.870;16.058;2023-05-22T02:52:33;97270.00;;;12.63;100.00
49515;BME280;35415;47.870;16.058;2023-05-22T02:55:01;97238.06;;;12.36;100.00
49515;BME280;35415;47.870;16.058;2023-05-22T02:57:31;97259.50;;;12.56;100.00
49515;BME280;35415;47.870;16.058;2023-05-22T03:00:01;97246.94;;;12.37;100.00
49515;BME280;35415;47.870;16.058;2023-05-22T03:02:31;97286.19;;;12.58;100.00
49515;BME280;35415;47.870;16.058;2023-05-22T03:05:02;97294.28;;;12.58;100.00
49515;BME280;35415;47.870;16.058;2023-05-22T03:07:29;97198.38;;;11.92;100.00
49515;BME280;35415;47.870;16.058;2023-05-22T03:09:57;97225.78;;;12.15;100.00
49515;BME280;35415;47.870;16.058;2023-05-22T03:12:24;97233.88;;;12.15;100.00
49515;BME280;35415;47.870;16.058;2023-05-22T03:14:55;97215.88;;;12.00;100.00
49515;BME280;35415;47.870;16.058;2023-05-22T03:17:23;97265.31;;;12.34;100.00
49515;BME280;35415;47.870;16.058;2023-05-22T03:19:51;97218.34;;;11.96;100.00
49515;BME280;35415;47.870;16.058;2023-05-22T03:22:18;97227.19;;;12.02;100.00
49515;BME280;35415;47.870;16.058;2023-05-22T03:24:47;97184.97;;;11.72;100.00
49515;BME280;35415;47.870;16.058;2023-05-22T03:27:15;97216.44;;;11.97;100.00
49515;BME280;35415;47.870;16.058;2023-05-22T03:29:44;97201.16;;;11.77;100.00
49515;BME280;35415;47.870;16.058;2023-05-22T03:32:15;97194.41;;;11.74;100.00
49515;BME280;35415;47.870;16.058;2023-05-22T03:34:42;97221.84;;;11.97;100.00
49515;BME280;35415;47.870;16.058;2023-05-22T03:37:10;97274.53;;;12.28;100.00
49515;BME280;35415;47.870;16.058;2023-05-22T03:39:37;97174.00;;;11.58;100.00
49515;BME280;35415;47.870;16.058;2023-05-22T03:42:05;97190.16;;;11.63;100.00
49515;BME280;35415;47.870;16.058;2023-05-22T03:44:37;97208.72;;;11.80;100.00
49515;BME280;35415;47.870;16.058;2023-05-22T03:52:36;97244.19;;;11.97;100.00
49515;BME280;35415;47.870;16.058;2023-05-22T03:55:07;97278.91;;;12.14;100.00
49515;BME280;35415;47.870;16.058;2023-05-22T03:57:35;97180.00;;;11.45;100.00
49515;BME280;35415;47.870;16.058;2023-05-22T04:00:04;97168.69;;;11.43;100.00
49515;BME280;35415;47.870;16.058;2023-05-22T04:02:34;97167.06;;;11.37;100.00
49515;BME280;35415;47.870;16.058;2023-05-22T04:05:06;97275.94;;;12.16;100.00
49515;BME280;35415;47.870;16.058;2023-05-22T04:07:36;97284.06;;;12.11;100.00
49515;BME280;35415;47.870;16.058;2023-05-22T04:10:04;97193.97;;;11.47;100.00
49515;BME280;35415;47.870;16.058;2023-05-22T04:12:34;97224.66;;;11.61;100.00
49515;BME280;35415;47.870;16.058;2023-05-22T04:15:01;97144.78;;;11.26;100.00
49515;BME280;35415;47.870;16.058;2023-05-22T04:17:30;97280.28;;;12.07;100.00
49515;BME280;35415;47.870;16.058;2023-05-22T04:20:00;97235.91;;;11.73;100.00
49515;BME280;35415;47.870;16.058;2023-05-22T04:22:29;97218.72;;;11.59;100.00
49515;BME280;35415;47.870;16.058;2023-05-22T04:25:02;97230.25;;;11.70;100.00
49515;BME280;35415;47.870;16.058;2023-05-22T04:27:35;97278.66;;;12.05;100.00
49515;BME280;35415;47.870;16.058;2023-05-22T04:30:04;97239.97;;;11.76;100.00
49515;BME280;35415;47.870;16.058;2023-05-22T04:32:32;97271.16;;;11.97;100.00
49515;BME280;35415;47.870;16.058;2023-05-22T04:35:05;97247.75;;;11.83;100.00
49515;BME280;35415;47.870;16.058;2023-05-22T04:37:34;97252.34;;;11.82;100.00
49515;BME280;35415;47.870;16.058;2023-05-22T04:40:06;97260.38;;;11.92;100.00
49515;BME280;35415;47.870;16.058;2023-05-22T04:42:35;97230.78;;;11.77;100.00
49515;BME280;35415;47.870;16.058;2023-05-22T04:45:04;97239.97;;;11.81;100.00
49515;BME280;35415;47.870;16.058;2023-05-22T04:47:32;97286.19;;;12.14;100.00
49515;BME280;35415;47.870;16.058;2023-05-22T04:49:59;97216.22;;;11.73;100.00
49515;BME280;35415;47.870;16.058;2023-05-22T04:52:31;97226.47;;;11.71;100.00
49515;BME280;35415;47.870;16.058;2023-05-22T04:54:58;97204.44;;;11.64;100.00
49515;BME280;35415;47.870;16.058;2023-05-22T04:57:27;97220.00;;;11.77;100.00
49515;BME280;35415;47.870;16.058;2023-05-22T04:59:57;97265.97;;;12.11;100.00
49515;BME280;35415;47.870;16.058;2023-05-22T05:02:25;97212.22;;;11.81;100.00
49515;BME280;35415;47.870;16.058;2023-05-22T05:04:54;97211.13;;;11.82;100.00
49515;BME280;35415;47.870;16.058;2023-05-22T05:07:25;97181.81;;;11.60;100.00
49515;BME280;35415;47.870;16.058;2023-05-22T05:09:52;97240.91;;;12.05;100.00
49515;BME280;35415;47.870;16.058;2023-05-22T05:12:20;97276.66;;;12.31;100.00
49515;BME280;35415;47.870;16.058;2023-05-22T05:14:49;97277.66;;;12.41;100.00
49515;BME280;35415;47.870;16.058;2023-05-22T05:17:16;97291.69;;;12.48;100.00
49515;BME280;35415;47.870;16.058;2023-05-22T05:19:43;97274.16;;;12.45;100.00
49515;BME280;35415;47.870;16.058;2023-05-22T05:22:11;97264.50;;;12.34;100.00
49515;BME280;35415;47.870;16.058;2023-05-22T05:24:39;97202.34;;;12.10;100.00
49515;BME280;35415;47.870;16.058;2023-05-22T05:27:07;97274.59;;;12.62;100.00
49515;BME280;35415;47.870;16.058;2023-05-22T05:29:36;97194.28;;;12.10;100.00
49515;BME280;35415;47.870;16.058;2023-05-22T05:32:05;97252.72;;;12.59;100.00
49515;BME280;35415;47.870;16.058;2023-05-22T05:34:33;97235.72;;;12.63;100.00
49515;BME280;35415;47.870;16.058;2023-05-22T05:37:01;97277.88;;;12.93;100.00
49515;BME280;35415;47.870;16.058;2023-05-22T05:39:28;97233.78;;;12.69;100.00
49515;BME280;35415;47.870;16.058;2023-05-22T05:41:58;97230.97;;;12.84;100.00
49515;BME280;35415;47.870;16.058;2023-05-22T05:44:26;97258.50;;;13.15;100.00
49515;BME280;35415;47.870;16.058;2023-05-22T05:46:53;97252.56;;;13.18;100.00
49515;BME280;35415;47.870;16.058;2023-05-22T05:49:25;97247.38;;;13.27;100.00
49515;BME280;35415;47.870;16.058;2023-05-22T05:51:53;97280.16;;;13.44;100.00
49515;BME280;35415;47.870;16.058;2023-05-22T05:54:22;97267.63;;;13.53;100.00
49515;BME280;35415;47.870;16.058;2023-05-22T05:56:50;97155.00;;;12.96;100.00
49515;BME280;35415;47.870;16.058;2023-05-22T05:59:18;97189.34;;;13.19;100.00
49515;BME280;35415;47.870;16.058;2023-05-22T06:01:47;97227.78;;;13.64;100.00
49515;BME280;35415;47.870;16.058;2023-05-22T06:04:15;97157.06;;;13.33;100.00
49515;BME280;35415;47.870;16.058;2023-05-22T06:06:45;97239.69;;;13.87;100.00
49515;BME280;35415;47.870;16.058;2023-05-22T06:09:13;97197.69;;;13.71;100.00
49515;BME280;35415;47.870;16.058;2023-05-22T06:11:40;97256.31;;;14.18;100.00
49515;BME280;35415;47.870;16.058;2023-05-22T06:14:08;97199.00;;;13.97;100.00
49515;BME280;35415;47.870;16.058;2023-05-22T06:16:39;97192.28;;;13.95;100.00
49515;BME280;35415;47.870;16.058;2023-05-22T06:19:07;97171.00;;;13.88;100.00
49515;BME280;35415;47.870;16.058;2023-05-22T06:21:35;97247.44;;;14.55;100.00
49515;BME280;35415;47.870;16.058;2023-05-22T06:24:07;97160.69;;;14.09;100.00
49515;BME280;35415;47.870;16.058;2023-05-22T06:26:35;97176.94;;;14.28;100.00
49515;BME280;35415;47.870;16.058;2023-05-22T06:29:02;97211.97;;;14.57;100.00
49515;BME280;35415;47.870;16.058;2023-05-22T06:31:32;97213.72;;;14.66;100.00
49515;BME280;35415;47.870;16.058;2023-05-22T06:34:02;97248.06;;;15.03;100.00
49515;BME280;35415;47.870;16.058;2023-05-22T06:36:32;97227.06;;;14.95;100.00
49515;BME280;35415;47.870;16.058;2023-05-22T06:39:01;97188.06;;;14.78;100.00
49515;BME280;35415;47.870;16.058;2023-05-22T06:41:30;97182.09;;;14.81;100.00
49515;BME280;35415;47.870;16.058;2023-05-22T06:43:59;97217.78;;;15.15;100.00
49515;BME280;35415;47.870;16.058;2023-05-22T06:46:26;97201.44;;;15.20;100.00
49515;BME280;35415;47.870;16.058;2023-05-22T06:48:54;97166.13;;;15.12;100.00
49515;BME280;35415;47.870;16.058;2023-05-22T06:51:22;97252.31;;;15.70;100.00
49515;BME280;35415;47.870;16.058;2023-05-22T06:53:53;97226.81;;;15.71;100.00
49515;BME280;35415;47.870;16.058;2023-05-22T06:56:21;97170.44;;;15.40;100.00
49515;BME280;35415;47.870;16.058;2023-05-22T06:58:51;97213.66;;;15.78;100.00
49515;BME280;35415;47.870;16.058;2023-05-22T07:01:18;97188.97;;;15.79;100.00
49515;BME280;35415;47.870;16.058;2023-05-22T07:03:46;97145.28;;;15.67;100.00
49515;BME280;35415;47.870;16.058;2023-05-22T07:06:14;97132.09;;;15.74;100.00
49515;BME280;35415;47.870;16.058;2023-05-22T07:08:41;97115.22;;;15.77;100.00
49515;BME280;35415;47.870;16.058;2023-05-22T07:11:09;97132.97;;;15.97;100.00
49515;BME280;35415;47.870;16.058;2023-05-22T07:13:38;97203.06;;;16.53;100.00
49515;BME280;35415;47.870;16.058;2023-05-22T07:16:08;97172.69;;;16.51;100.00
49515;BME280;35415;47.870;16.058;2023-05-22T07:18:36;97199.25;;;16.77;100.00
49515;BME280;35415;47.870;16.058;2023-05-22T07:21:06;97147.19;;;16.61;100.00
49515;BME280;35415;47.870;16.058;2023-05-22T07:23:34;97180.19;;;16.91;100.00
49515;BME280;35415;47.870;16.058;2023-05-22T07:26:02;97173.72;;;17.00;100.00
49515;BME280;35415;47.870;16.058;2023-05-22T07:28:36;97174.22;;;17.11;100.00
49515;BME280;35415;47.870;16.058;2023-05-22T07:31:09;97129.75;;;16.98;100.00
49515;BME280;35415;47.870;16.058;2023-05-22T07:33:36;97153.69;;;17.27;100.00
49515;BME280;35415;47.870;16.058;2023-05-22T07:36:09;97172.34;;;17.51;100.00
49515;BME280;35415;47.870;16.058;2023-05-22T07:38:37;97134.25;;;17.42;100.00
49515;BME280;35415;47.870;16.058;2023-05-22T07:41:06;97140.69;;;17.55;100.00
49515;BME280;35415;47.870;16.058;2023-05-22T07:43:34;97184.22;;;18.03;100.00
49515;BME280;35415;47.870;16.058;2023-05-22T07:46:04;97209.53;;;18.30;100.00
49515;BME280;35415;47.870;16.058;2023-05-22T07:48:35;97218.56;;;18.48;100.00
49515;BME280;35415;47.870;16.058;2023-05-22T07:51:05;97139.84;;;18.12;100.00
49515;BME280;35415;47.870;16.058;2023-05-22T07:53:34;97152.53;;;18.33;100.00
49515;BME280;35415;47.870;16.058;2023-05-22T07:56:01;97157.66;;;18.44;100.00
49515;BME280;35415;47.870;16.058;2023-05-22T07:58:32;97222.88;;;19.01;100.00
49515;BME280;35415;47.870;16.058;2023-05-22T08:01:19;97179.94;;;18.80;100.00
49515;BME280;35415;47.870;16.058;2023-05-22T08:03:59;97167.25;;;18.93;100.00
49515;BME280;35415;47.870;16.058;2023-05-22T08:06:26;97202.28;;;19.29;100.00
49515;BME280;35415;47.870;16.058;2023-05-22T08:11:56;97112.06;;;19.05;100.00
49515;BME280;35415;47.870;16.058;2023-05-22T08:14:24;97207.09;;;19.79;100.00
49515;BME280;35415;47.870;16.058;2023-05-22T08:16:51;97201.75;;;19.91;100.00
49515;BME280;35415;47.870;16.058;2023-05-22T08:19:20;97161.69;;;19.74;100.00
49515;BME280;35415;47.870;16.058;2023-05-22T08:21:50;97163.78;;;19.98;100.00
49515;BME280;35415;47.870;16.058;2023-05-22T08:24:22;97144.56;;;19.95;100.00
49515;BME280;35415;47.870;16.058;2023-05-22T08:26:53;97147.25;;;20.03;99.63
49515;BME280;35415;47.870;16.058;2023-05-22T08:29:20;97125.13;;;19.96;100.00
49515;BME280;35415;47.870;16.058;2023-05-22T08:31:48;97115.19;;;20.12;97.77
49515;BME280;35415;47.870;16.058;2023-05-22T08:34:16;97191.25;;;20.73;98.18
49515;BME280;35415;47.870;16.058;2023-05-22T08:36:46;97186.13;;;20.71;97.21
49515;BME280;35415;47.870;16.058;2023-05-22T08:39:16;97195.44;;;20.91;98.90
49515;BME280;35415;47.870;16.058;2023-05-22T08:41:45;97140.66;;;20.67;96.28
49515;BME280;35415;47.870;16.058;2023-05-22T08:44:16;97159.53;;;20.93;96.41
49515;BME280;35415;47.870;16.058;2023-05-22T08:46:45;97101.00;;;20.61;95.92
49515;BME280;35415;47.870;16.058;2023-05-22T08:49:15;97125.03;;;20.88;95.22
49515;BME280;35415;47.870;16.058;2023-05-22T08:51:47;97114.25;;;21.04;95.27
49515;BME280;35415;47.870;16.058;2023-05-22T08:54:21;97132.38;;;21.21;95.28
49515;BME280;35415;47.870;16.058;2023-05-22T08:56:55;97152.03;;;21.47;94.42
49515;BME280;35415;47.870;16.058;2023-05-22T08:59:26;97171.78;;;21.77;93.49
49515;BME280;35415;47.870;16.058;2023-05-22T09:01:54;97095.84;;;21.38;92.23
49515;BME280;35415;47.870;16.058;2023-05-22T09:04:25;97118.75;;;21.57;90.70
49515;BME280;35415;47.870;16.058;2023-05-22T09:07:13;97161.78;;;22.06;92.81
49515;BME280;35415;47.870;16.058;2023-05-22T09:43:28;97180.03;;;24.01;81.05
49515;BME280;35415;47.870;16.058;2023-05-22T09:45:56;97143.28;;;23.90;82.35
49515;BME280;35415;47.870;16.058;2023-05-22T09:48:23;97174.69;;;24.24;80.76
49515;BME280;35415;47.870;16.058;2023-05-22T09:50:53;97170.53;;;24.30;79.75
49515;BME280;35415;47.870;16.058;2023-05-22T09:53:26;97143.38;;;24.28;81.45
49515;BME280;35415;47.870;16.058;2023-05-22T09:55:57;97126.09;;;24.28;79.68
49515;BME280;35415;47.870;16.058;2023-05-22T09:58:26;97130.47;;;24.48;79.96
49515;BME280;35415;47.870;16.058;2023-05-22T10:01:05;97122.06;;;24.60;80.47
49515;BME280;35415;47.870;16.058;2023-05-22T10:03:37;97152.97;;;24.93;78.50
49515;BME280;35415;47.870;16.058;2023-05-22T10:06:10;97176.72;;;25.20;75.80
49515;BME280;35415;47.870;16.058;2023-05-22T10:08:53;97156.47;;;25.32;75.55
49515;BME280;35415;47.870;16.058;2023-05-22T10:11:23;97080.63;;;24.92;74.83
49515;BME280;35415;47.870;16.058;2023-05-22T10:13:52;97131.31;;;25.33;75.55
49515;BME280;35415;47.870;16.058;2023-05-22T10:16:25;97118.84;;;25.39;74.98
49515;BME280;35415;47.870;16.058;2023-05-22T10:18:56;97084.16;;;25.35;73.80
49515;BME280;35415;47.870;16.058;2023-05-22T10:21:24;97073.00;;;25.50;73.69
49515;BME280;35415;47.870;16.058;2023-05-22T10:23:52;97134.41;;;26.00;70.28
49515;BME280;35415;47.870;16.058;2023-05-22T10:26:21;97129.44;;;26.09;68.78
49515;BME280;35415;47.870;16.058;2023-05-22T10:28:53;97126.88;;;26.24;67.18
49515;BME280;35415;47.870;16.058;2023-05-22T10:31:35;97127.56;;;26.44;68.01
49515;BME280;35415;47.870;16.058;2023-05-22T10:34:10;97059.69;;;26.05;61.93
49515;BME280;35415;47.870;16.058;2023-05-22T10:36:53;97080.94;;;26.35;60.25
49515;BME280;35415;47.870;16.058;2023-05-22T10:39:39;97086.34;;;26.58;59.21
49515;BME280;35415;47.870;16.058;2023-05-22T10:42:11;97050.22;;;26.36;58.21
49515;BME280;35415;47.870;16.058;2023-05-22T10:44:39;97074.69;;;26.72;53.92
49515;BME280;35415;47.870;16.058;2023-05-22T10:47:10;97070.28;;;26.67;53.14
49515;BME280;35415;47.870;16.058;2023-05-22T10:49:44;97082.38;;;26.89;55.18
49515;BME280;35415;47.870;16.058;2023-05-22T10:52:15;97051.47;;;26.76;53.25
49515;BME280;35415;47.870;16.058;2023-05-22T10:54:46;97109.94;;;27.22;53.88
49515;BME280;35415;47.870;16.058;2023-05-22T10:57:18;97048.81;;;26.87;52.60
49515;BME280;35415;47.870;16.058;2023-05-22T10:59:46;97118.38;;;27.40;51.36
49515;BME280;35415;47.870;16.058;2023-05-22T11:02:37;97084.75;;;27.31;52.35
49515;BME280;35415;47.870;16.058;2023-05-22T11:05:33;97101.19;;;27.61;51.88
49515;BME280;35415;47.870;16.058;2023-05-22T11:08:11;97073.44;;;27.43;52.06
49515;BME280;35415;47.870;16.058;2023-05-22T12:21:36;97045.66;;;27.22;36.48
49515;BME280;35415;47.870;16.058;2023-05-22T12:24:09;97066.84;;;27.14;37.28
49515;BME280;35415;47.870;16.058;2023-05-22T12:26:49;97115.53;;;27.30;38.31
49515;BME280;35415;47.870;16.058;2023-05-22T12:29:16;97079.22;;;26.90;35.97
49515;BME280;35415;47.870;16.058;2023-05-22T12:32:16;97113.31;;;27.05;37.47
49515;BME280;35415;47.870;16.058;2023-05-22T12:35:14;97111.56;;;26.90;38.52
49515;BME280;35415;47.870;16.058;2023-05-22T12:38:02;97090.59;;;26.52;37.34
49515;BME280;35415;47.870;16.058;2023-05-22T12:41:13;97122.97;;;26.55;37.88
49515;BME280;35415;47.870;16.058;2023-05-22T12:43:42;97122.66;;;26.33;36.51
49515;BME280;35415;47.870;16.058;2023-05-22T12:46:11;97072.34;;;25.84;36.38
49515;BME280;35415;47.870;16.058;2023-05-22T12:48:38;97106.00;;;25.96;37.02
49515;BME280;35415;47.870;16.058;2023-05-22T12:51:10;97045.47;;;25.50;37.24
49515;BME280;35415;47.870;16.058;2023-05-22T12:53:40;97117.06;;;26.00;39.58
49515;BME280;35415;47.870;16.058;2023-05-22T12:56:08;97130.47;;;26.01;38.19
49515;BME280;35415;47.870;16.058;2023-05-22T12:58:36;97081.06;;;25.63;37.96
49515;BME280;35415;47.870;16.058;2023-05-22T13:01:08;97092.50;;;25.65;38.33
49515;BME280;35415;47.870;16.058;2023-05-22T13:03:35;97051.06;;;25.31;39.95
49515;BME280;35415;47.870;16.058;2023-05-22T13:06:03;97081.34;;;25.54;39.24
49515;BME280;35415;47.870;16.058;2023-05-22T13:08:34;97105.63;;;25.71;39.83
49515;BME280;35415;47.870;16.058;2023-05-22T13:11:03;97061.09;;;25.43;39.86
49515;BME280;35415;47.870;16.058;2023-05-22T13:13:33;97125.03;;;26.05;40.63
49515;BME280;35415;47.870;16.058;2023-05-22T13:16:05;97120.09;;;25.91;40.79
49515;BME280;35415;47.870;16.058;2023-05-22T13:18:33;97078.34;;;25.66;40.23
49515;BME280;35415;47.870;16.058;2023-05-22T13:21:01;97019.56;;;25.29;41.36
49515;BME280;35415;47.870;16.058;2023-05-22T13:23:30;97071.41;;;25.72;42.87
49515;BME280;35415;47.870;16.058;2023-05-22T13:29:33;97054.13;;;25.75;41.40
49515;BME280;35415;47.870;16.058;2023-05-22T13:32:11;97009.72;;;25.54;43.21
49515;BME280;35415;47.870;16.058;2023-05-22T13:34:57;97095.06;;;26.33;40.93
49515;BME280;35415;47.870;16.058;2023-05-22T13:37:45;97097.97;;;26.41;39.65
49515;BME280;35415;47.870;16.058;2023-05-22T13:40:14;97036.09;;;26.08;37.03
49515;BME280;35415;47.870;16.058;2023-05-22T13:42:57;97044.47;;;26.19;36.83
49515;BME280;35415;47.870;16.058;2023-05-22T13:45:29;97055.69;;;26.33;38.46
49515;BME280;35415;47.870;16.058;2023-05-22T13:48:00;97055.75;;;26.36;37.72
49515;BME280;35415;47.870;16.058;2023-05-22T13:50:30;96998.25;;;26.05;37.41
49515;BME280;35415;47.870;16.058;2023-05-22T13:52:58;97013.50;;;26.29;35.52
49515;BME280;35415;47.870;16.058;2023-05-22T13:55:25;97035.75;;;26.43;37.99
49515;BME280;35415;47.870;16.058;2023-05-22T14:01:22;97082.00;;;26.90;37.36
49515;BME280;35415;47.870;16.058;2023-05-22T14:03:50;97053.81;;;26.74;36.41
49515;BME280;35415;47.870;16.058;2023-05-22T14:06:17;97066.13;;;26.84;35.10
49515;BME280;35415;47.870;16.058;2023-05-22T14:20:10;97047.94;;;27.16;37.95
49515;BME280;35415;47.870;16.058;2023-05-22T14:22:37;97039.63;;;27.13;36.49
49515;BME280;35415;47.870;16.058;2023-05-22T14:25:05;97000.31;;;26.86;36.43
49515;BME280;35415;47.870;16.058;2023-05-22T14:27:36;97023.69;;;26.95;36.77
49515;BME280;35415;47.870;16.058;2023-05-22T14:30:06;97038.28;;;26.96;36.59
49515;BME280;35415;47.870;16.058;2023-05-22T14:32:43;96977.03;;;26.43;35.53
49515;BME280;35415;47.870;16.058;2023-05-22T14:35:18;96997.28;;;26.57;37.02
49515;BME280;35415;47.870;16.058;2023-05-22T14:37:46;96990.09;;;26.49;37.37
49515;BME280;35415;47.870;16.058;2023-05-22T14:40:18;96994.78;;;26.45;36.49
49515;BME280;35415;47.870;16.058;2023-05-22T14:42:46;96980.81;;;26.31;36.83
49515;BME280;35415;47.870;16.058;2023-05-22T14:45:13;97031.59;;;26.60;38.61
49515;BME280;35415;47.870;16.058;2023-05-22T14:47:40;96953.28;;;26.01;38.69
49515;BME280;35415;47.870;16.058;2023-05-22T14:50:09;96962.06;;;26.10;38.55
49515;BME280;35415;47.870;16.058;2023-05-22T14:52:38;96963.69;;;26.15;37.82
49515;BME280;35415;47.870;16.058;2023-05-22T14:55:08;97012.34;;;26.67;39.36
49515;BME280;35415;47.870;16.058;2023-05-22T14:57:36;96983.94;;;26.29;38.84
49515;BME280;35415;47.870;16.058;2023-05-22T15:00:05;97003.81;;;26.42;39.78
49515;BME280;35415;47.870;16.058;2023-05-22T15:02:37;97004.47;;;26.32;41.50
49515;BME280;35415;47.870;16.058;2023-05-22T15:05:05;96959.59;;;26.01;43.15
49515;BME280;35415;47.870;16.058;2023-05-22T15:07:32;97018.78;;;26.41;44.29
49515;BME280;35415;47.870;16.058;2023-05-22T15:10:02;97019.78;;;26.29;45.21
49515;BME280;35415;47.870;16.058;2023-05-22T15:12:32;97013.94;;;26.34;45.49
49515;BME280;35415;47.870;16.058;2023-05-22T15:15:00;97011.44;;;26.22;45.76